Time;durP1;ratioP1;P1;durP2;ratioP2;P2;SDS_P1;SDS_P2;PMS_P1;PMS_P2;Temp;Humidity;BMP_temperature;BMP_pressure;BME280_temperature;BME280_humidity;BME280_pressure;Samples;Min_cycle;Max_cycle;Signal;HPM_P1;HPM_P2
2022/06/11 00:01:27;;;;;;;10.48;6.38;;;;;;;15.79;54.14;101965.78;5022367;28;20449;-80
2022/06/11 00:03:58;;;;;;;16.45;8.20;;;;;;;15.73;53.99;101957.28;5012581;28;20038;-78
2022/06/11 00:06:25;;;;;;;17.37;8.60;;;;;;;15.58;54.51;101967.56;4998374;28;20037;-79
2022/06/11 00:08:52;;;;;;;13.90;7.68;;;;;;;15.58;54.15;101961.44;5015370;28;20132;-79
2022/06/11 00:11:18;;;;;;;20.30;7.95;;;;;;;15.49;54.32;101957.44;5019342;28;20060;-78
2022/06/11 00:13:44;;;;;;;16.73;8.52;;;;;;;15.40;54.62;101949.06;4995565;28;20400;-78
2022/06/11 00:16:11;;;;;;;13.07;9.73;;;;;;;15.36;54.76;101954.47;5002031;28;20029;-79
2022/06/11 00:18:40;;;;;;;16.33;8.90;;;;;;;15.26;54.74;101950.53;5004032;28;20062;-79
2022/06/11 00:21:06;;;;;;;19.48;9.60;;;;;;;15.23;54.98;101942.75;5012948;28;20034;-78
2022/06/11 00:23:32;;;;;;;16.42;10.30;;;;;;;15.15;55.25;101953.59;5000480;28;20052;-79
2022/06/11 00:26:01;;;;;;;19.23;9.63;;;;;;;15.14;55.42;101946.59;5001252;28;20799;-79
2022/06/11 00:28:27;;;;;;;16.40;9.65;;;;;;;15.26;55.48;101947.00;5010808;28;20515;-79
2022/06/11 00:30:52;;;;;;;11.10;7.70;;;;;;;15.34;55.44;101950.19;5000950;28;20037;-76
2022/06/11 00:33:18;;;;;;;20.02;9.20;;;;;;;15.43;55.36;101943.66;5016599;28;20950;-78
2022/06/11 00:35:45;;;;;;;17.98;9.35;;;;;;;15.53;55.16;101951.09;5002355;28;20029;-80
2022/06/11 00:38:11;;;;;;;18.90;9.25;;;;;;;15.63;54.64;101961.22;4998205;28;20060;-77
2022/06/11 00:40:39;;;;;;;18.55;9.73;;;;;;;15.59;54.49;101953.47;4999642;28;20513;-77
2022/06/11 00:43:06;;;;;;;23.63;11.32;;;;;;;15.51;54.54;101952.94;5002348;28;20041;-78
2022/06/11 00:45:45;;;;;;;18.80;9.77;;;;;;;15.49;54.56;101944.25;4997751;28;20087;-79
2022/06/11 00:48:19;;;;;;;18.25;10.27;;;;;;;15.46;54.41;101939.13;4993068;28;20943;-77
2022/06/11 00:50:49;;;;;;;21.60;9.43;;;;;;;15.37;54.57;101939.50;5003125;28;20047;-79
2022/06/11 00:53:21;;;;;;;12.10;7.97;;;;;;;15.40;55.00;101943.81;5001005;28;20467;-78
2022/06/11 00:55:49;;;;;;;20.73;9.43;;;;;;;15.46;54.83;101944.41;4994833;28;20050;-79
2022/06/11 00:58:24;;;;;;;20.48;9.85;;;;;;;15.59;54.88;101942.94;4994042;28;20038;-77
2022/06/11 01:00:53;;;;;;;16.02;9.57;;;;;;;15.68;54.48;101932.88;5000763;28;20040;-79
2022/06/11 01:03:25;;;;;;;15.52;8.00;;;;;;;15.73;54.52;101938.84;4999333;28;20416;-79
2022/06/11 01:06:06;;;;;;;22.00;11.27;;;;;;;15.59;54.29;101934.16;4998279;28;20037;-80
2022/06/11 01:08:47;;;;;;;17.27;11.13;;;;;;;15.40;54.26;101934.13;5010574;28;20045;-81
2022/06/11 01:11:24;;;;;;;20.58;11.65;;;;;;;15.24;54.67;101931.31;4995614;28;20135;-80
2022/06/11 01:14:09;;;;;;;23.60;12.02;;;;;;;15.14;55.01;101927.31;5007244;28;20068;-75
2022/06/11 01:17:06;;;;;;;16.20;10.88;;;;;;;15.07;55.19;101925.84;5003862;28;20038;-79
2022/06/11 01:19:56;;;;;;;17.08;10.25;;;;;;;15.04;55.33;101921.59;5011513;28;20091;-76
2022/06/11 01:23:00;;;;;;;16.98;10.18;;;;;;;15.03;55.33;101919.84;5001255;28;20045;-77
2022/06/11 01:25:37;;;;;;;15.88;9.57;;;;;;;15.04;55.34;101915.47;5000396;28;20104;-78
2022/06/11 01:28:19;;;;;;;17.67;9.80;;;;;;;15.03;55.30;101925.13;4993533;28;20083;-77
2022/06/11 01:30:54;;;;;;;16.88;10.00;;;;;;;15.01;55.26;101926.13;5014743;28;20065;-81
2022/06/11 01:33:22;;;;;;;19.95;9.27;;;;;;;14.99;55.33;101918.25;5000661;28;20033;-76
2022/06/11 01:35:57;;;;;;;15.43;9.38;;;;;;;14.99;55.28;101913.00;4997860;28;20510;-81
2022/06/11 01:38:28;;;;;;;15.77;9.95;;;;;;;15.14;55.04;101914.97;4993591;28;20119;-77
2022/06/11 01:41:19;;;;;;;13.73;7.93;;;;;;;15.18;55.01;101923.63;5005004;28;20037;-77
2022/06/11 01:43:48;;;;;;;15.05;9.68;;;;;;;15.20;55.15;101915.66;5018258;28;20834;-80
2022/06/11 01:46:23;;;;;;;15.60;9.20;;;;;;;15.25;54.71;101916.34;5005611;28;20483;-81
2022/06/11 01:49:21;;;;;;;16.02;10.65;;;;;;;15.02;54.74;101909.41;5006856;28;20555;-81
2022/06/11 01:52:01;;;;;;;15.35;9.30;;;;;;;14.92;55.26;101911.56;4997848;28;20091;-78
2022/06/11 01:55:01;;;;;;;12.80;8.38;;;;;;;14.89;55.05;101916.97;5002958;28;20033;-78
2022/06/11 01:57:51;;;;;;;13.00;8.70;;;;;;;14.72;55.30;101908.00;4999897;28;20042;-77
2022/06/11 02:00:32;;;;;;;14.63;9.23;;;;;;;14.62;55.42;101904.03;5011816;28;20038;-77
2022/06/11 02:02:58;;;;;;;10.87;8.37;;;;;;;14.61;55.28;101902.28;4999478;28;20037;-79
2022/06/11 02:05:42;;;;;;;11.50;6.75;;;;;;;14.58;54.99;101902.44;4998114;28;20040;-78
2022/06/11 02:08:38;;;;;;;11.07;7.85;;;;;;;14.47;55.51;101904.63;5000889;28;20065;-81
2022/06/11 02:11:22;;;;;;;14.88;7.82;;;;;;;14.43;56.01;101901.25;5001343;28;20539;-80
2022/06/11 02:14:03;;;;;;;12.75;7.82;;;;;;;14.47;56.08;101897.59;4998877;28;20084;-78
2022/06/11 02:16:35;;;;;;;10.40;8.00;;;;;;;14.56;55.33;101899.00;5011869;28;20068;-80
2022/06/11 02:19:08;;;;;;;12.55;7.88;;;;;;;14.62;54.96;101905.81;5000653;28;20042;-79
2022/06/11 02:21:40;;;;;;;11.15;6.88;;;;;;;14.57;55.04;101911.25;4996935;28;20041;-79
2022/06/11 02:24:13;;;;;;;14.30;7.45;;;;;;;14.40;55.29;101903.16;5017280;28;20041;-78
2022/06/11 02:26:47;;;;;;;13.40;6.18;;;;;;;14.38;55.86;101904.97;4998923;28;20149;-78
2022/06/11 02:29:16;;;;;;;13.65;7.75;;;;;;;14.35;55.53;101904.19;5011092;28;20052;-80
2022/06/11 02:31:54;;;;;;;12.90;7.93;;;;;;;14.38;55.57;101910.22;4995294;28;20384;-81
2022/06/11 02:34:23;;;;;;;9.40;7.20;;;;;;;14.43;55.66;101916.19;5000968;28;20037;-78
2022/06/11 02:37:17;;;;;;;15.55;8.63;;;;;;;14.41;55.77;101920.66;5011087;28;20038;-81
2022/06/11 02:39:43;;;;;;;10.55;8.40;;;;;;;14.40;55.75;101916.28;5012042;28;20220;-79
2022/06/11 02:42:14;;;;;;;12.63;8.68;;;;;;;14.21;56.44;101911.78;5006001;28;20073;-79
2022/06/11 02:44:40;;;;;;;16.37;9.00;;;;;;;14.25;56.22;101910.69;5020652;28;20056;-80
2022/06/11 02:47:06;;;;;;;16.98;7.80;;;;;;;14.24;56.02;101909.00;5014122;28;20059;-79
2022/06/11 02:49:34;;;;;;;8.20;7.18;;;;;;;14.28;55.99;101907.97;5010505;28;20619;-77
2022/06/11 02:52:07;;;;;;;11.63;6.90;;;;;;;14.32;55.92;101911.31;5011149;28;20025;-76
2022/06/11 02:54:34;;;;;;;10.68;7.13;;;;;;;14.30;55.73;101915.78;5022793;28;20049;-79
2022/06/11 02:57:02;;;;;;;11.38;8.90;;;;;;;14.19;55.64;101910.97;5009498;28;20033;-76
2022/06/11 02:59:29;;;;;;;11.07;7.50;;;;;;;14.04;55.75;101922.06;5016568;28;20038;-78
2022/06/11 03:01:56;;;;;;;10.77;7.63;;;;;;;13.94;55.83;101914.53;5022551;28;20111;-78
2022/06/11 03:04:23;;;;;;;17.75;8.23;;;;;;;13.84;55.89;101918.41;5012909;28;20037;-78
2022/06/11 03:06:49;;;;;;;10.55;7.68;;;;;;;13.72;56.38;101913.63;5027995;28;20045;-78
2022/06/11 03:09:19;;;;;;;11.50;7.72;;;;;;;13.69;56.42;101911.94;5031745;28;20042;-78
2022/06/11 03:12:06;;;;;;;12.00;8.13;;;;;;;13.61;56.12;101913.16;5011972;28;20041;-80
2022/06/11 03:14:32;;;;;;;12.70;8.25;;;;;;;13.55;56.44;101918.59;5008424;28;20054;-78
2022/06/11 03:16:58;;;;;;;10.02;8.10;;;;;;;13.49;56.64;101920.50;5013499;28;20045;-78
2022/06/11 03:19:24;;;;;;;11.68;8.00;;;;;;;13.47;56.56;101921.47;5013944;28;20085;-77
2022/06/11 03:21:53;;;;;;;11.75;7.68;;;;;;;13.44;56.41;101921.59;5014916;28;20034;-78
2022/06/11 03:24:20;;;;;;;15.32;7.82;;;;;;;13.51;56.39;101929.19;5015433;28;20028;-81
2022/06/11 03:26:47;;;;;;;14.57;8.27;;;;;;;13.50;56.27;101929.28;5019027;28;20037;-79
2022/06/11 03:33:15;;;;;;;11.98;7.53;;;;;;;13.60;56.29;101932.44;5054596;28;20025;-76
2022/06/11 03:35:43;;;;;;;7.90;6.47;;;;;;;13.57;55.78;101929.94;5039713;28;20301;-78
2022/06/11 03:38:09;;;;;;;11.45;7.05;;;;;;;13.54;56.06;101933.50;5020089;28;20041;-78
2022/06/11 03:44:04;;;;;;;14.18;7.82;;;;;;;13.48;56.69;101934.56;5020450;28;20060;-79
2022/06/11 03:46:30;;;;;;;15.52;6.57;;;;;;;13.53;56.41;101937.03;5014988;28;20172;-78
2022/06/11 03:48:56;;;;;;;8.90;5.78;;;;;;;13.55;56.21;101931.72;5008215;28;20045;-78
2022/06/11 03:51:22;;;;;;;14.07;5.57;;;;;;;13.76;55.67;101925.72;5012234;28;20113;-77
2022/06/11 03:53:49;;;;;;;16.38;6.28;;;;;;;13.73;55.28;101928.47;5007153;28;20049;-79
2022/06/11 03:56:16;;;;;;;6.55;4.75;;;;;;;13.78;55.15;101925.66;5016748;28;20060;-77
2022/06/11 03:59:18;;;;;;;12.93;4.90;;;;;;;14.19;54.84;101931.13;4962565;28;20186;-78
2022/06/11 04:01:45;;;;;;;8.02;3.55;;;;;;;14.31;53.60;101930.66;5012525;28;20520;-80
2022/06/11 04:04:14;;;;;;;9.40;4.00;;;;;;;14.58;52.92;101928.72;5031482;28;20105;-76
2022/06/11 04:06:45;;;;;;;6.63;3.10;;;;;;;14.57;52.49;101940.19;5013416;28;20045;-79
2022/06/11 04:09:17;;;;;;;;;;;;;;;14.65;52.52;101929.34;5020333;28;20119;-79
2022/06/11 04:11:46;;;;;;;6.65;2.28;;;;;;;14.83;52.03;101933.00;5028672;28;20479;-77
2022/06/11 04:14:12;;;;;;;8.60;2.67;;;;;;;14.91;51.84;101931.75;5026663;28;20033;-79
2022/06/11 04:21:28;;;;;;;7.13;1.83;;;;;;;14.81;50.50;101937.47;5021393;28;20039;-79
2022/06/11 04:24:00;;;;;;;5.38;1.65;;;;;;;14.81;50.96;101940.09;5018826;28;20039;-79
2022/06/11 04:26:33;;;;;;;6.07;1.90;;;;;;;14.31;51.31;101947.28;5007584;28;20034;-81
2022/06/11 04:29:00;;;;;;;7.03;1.50;;;;;;;14.85;50.81;101949.59;5015633;28;20041;-81
2022/06/11 04:31:28;;;;;;;9.23;1.80;;;;;;;14.72;50.19;101952.72;5011100;28;20030;-80
2022/06/11 04:33:55;;;;;;;5.10;2.15;;;;;;;14.57;50.13;101942.81;5004802;28;20053;-79
2022/06/11 04:36:23;;;;;;;7.75;1.58;;;;;;;14.51;49.98;101948.31;5005452;28;20029;-80
2022/06/11 04:38:50;;;;;;;4.13;1.70;;;;;;;14.23;49.74;101951.13;5006568;28;20046;-77
2022/06/11 04:41:16;;;;;;;3.88;1.05;;;;;;;14.49;49.33;101950.16;5024523;28;20175;-77
2022/06/11 04:43:41;;;;;;;3.47;1.05;;;;;;;14.47;49.21;101941.47;5001694;28;20064;-82
2022/06/11 04:46:08;;;;;;;5.15;0.80;;;;;;;14.40;49.04;101939.97;5002678;28;20084;-80
2022/06/11 04:48:34;;;;;;;5.88;1.00;;;;;;;15.03;48.00;101946.19;4996218;28;20144;-81
2022/06/11 04:51:00;;;;;;;7.30;0.90;;;;;;;14.85;48.21;101952.22;4998334;28;20123;-78
2022/06/11 04:53:26;;;;;;;4.68;1.00;;;;;;;14.61;48.44;101939.13;5001447;28;20129;-80
2022/06/11 04:55:52;;;;;;;7.28;0.70;;;;;;;15.12;47.83;101945.78;4996829;28;20116;-81
2022/06/11 04:58:18;;;;;;;4.50;0.98;;;;;;;15.16;47.49;101947.38;5002264;28;20045;-79
2022/06/11 05:00:43;;;;;;;7.30;1.65;;;;;;;15.48;46.95;101950.47;5003343;28;20061;-82
2022/06/11 05:03:09;;;;;;;6.45;0.80;;;;;;;15.52;46.71;101949.38;5011734;28;20061;-79
2022/06/11 05:05:35;;;;;;;9.90;0.88;;;;;;;16.82;44.53;101953.06;4997356;28;20794;-80
2022/06/11 05:08:01;;;;;;;4.55;0.60;;;;;;;18.84;40.64;101948.44;5004454;28;20533;-79
2022/06/11 05:10:29;;;;;;;8.90;0.70;;;;;;;20.30;36.55;101944.03;5003545;28;20087;-81
2022/06/11 05:12:55;;;;;;;9.50;0.77;;;;;;;21.75;33.28;101933.31;4999755;28;20053;-82
2022/06/11 05:15:21;;;;;;;6.78;0.88;;;;;;;23.29;32.62;101939.78;5020663;28;20033;-80
2022/06/11 05:17:47;;;;;;;5.07;0.95;;;;;;;24.03;30.41;101943.69;5017867;28;20175;-81
2022/06/11 05:20:15;;;;;;;4.18;0.60;;;;;;;23.00;30.69;101937.53;5028264;28;20030;-79
2022/06/11 05:22:41;;;;;;;5.63;0.70;;;;;;;22.10;32.40;101943.28;4999067;28;20124;-80
2022/06/11 05:25:07;;;;;;;7.68;0.90;;;;;;;22.94;32.91;101938.88;5002057;28;20038;-79
2022/06/11 05:27:34;;;;;;;3.22;1.58;;;;;;;24.35;28.42;101944.72;4995152;28;20991;-79
2022/06/11 05:30:07;;;;;;;7.30;0.85;;;;;;;24.09;29.47;101939.66;5003516;28;20151;-78
2022/06/11 05:32:37;;;;;;;7.40;1.30;;;;;;;23.48;29.97;101944.56;4993380;28;20340;-80
2022/06/11 05:35:06;;;;;;;3.83;1.20;;;;;;;24.70;29.50;101946.28;5013801;28;20029;-79
2022/06/11 05:37:32;;;;;;;3.83;0.63;;;;;;;23.88;29.49;101944.06;4999828;28;20172;-80
2022/06/11 05:39:58;;;;;;;6.75;1.13;;;;;;;23.97;29.28;101948.69;4996264;28;20033;-78
2022/06/11 05:42:26;;;;;;;6.90;1.13;;;;;;;25.08;28.11;101945.72;4995573;28;20405;-78
2022/06/11 05:44:52;;;;;;;4.80;1.27;;;;;;;24.11;29.14;101951.06;5008459;28;20037;-78
2022/06/11 05:47:21;;;;;;;6.13;0.70;;;;;;;22.98;31.30;101945.63;4993582;28;20041;-79
2022/06/11 05:49:51;;;;;;;2.85;0.70;;;;;;;23.98;29.44;101945.88;5011071;28;20332;-80
2022/06/11 05:52:21;;;;;;;4.60;0.65;;;;;;;23.75;29.80;101939.69;5017060;28;20069;-79
2022/06/11 05:54:48;;;;;;;4.78;1.17;;;;;;;23.90;29.84;101947.47;5011992;28;20580;-80
2022/06/11 05:57:17;;;;;;;4.70;1.17;;;;;;;23.92;30.06;101949.03;5015946;28;20077;-81
2022/06/11 05:59:47;;;;;;;12.63;1.00;;;;;;;22.97;30.28;101943.94;4999486;28;20378;-78
2022/06/11 06:02:16;;;;;;;7.03;1.10;;;;;;;22.95;29.86;101942.38;5013756;28;20504;-78
2022/06/11 06:04:42;;;;;;;5.78;1.40;;;;;;;21.95;33.83;101939.03;5009756;28;20033;-80
2022/06/11 06:07:08;;;;;;;6.25;1.23;;;;;;;24.21;29.09;101943.16;5015581;28;20527;-77
2022/06/11 06:09:34;;;;;;;5.22;1.13;;;;;;;24.95;27.85;101935.22;5013425;28;20048;-80
2022/06/11 06:12:00;;;;;;;8.52;1.67;;;;;;;23.85;28.47;101944.28;5012277;28;20033;-77
2022/06/11 06:14:26;;;;;;;6.53;1.08;;;;;;;22.22;31.53;101940.69;5021541;28;20034;-78
2022/06/11 06:16:51;;;;;;;5.32;1.13;;;;;;;23.38;29.83;101931.91;5011068;28;20044;-80
2022/06/11 06:19:17;;;;;;;8.15;1.10;;;;;;;22.76;29.63;101940.25;5000331;28;20025;-80
2022/06/11 06:21:43;;;;;;;8.93;2.17;;;;;;;24.20;28.11;101941.47;5004701;28;20037;-79
2022/06/11 06:24:08;;;;;;;5.95;1.65;;;;;;;24.05;28.06;101946.22;5000391;28;20030;-79
2022/06/11 06:26:35;;;;;;;5.22;0.93;;;;;;;24.08;28.24;101948.66;5025343;28;20521;-80
2022/06/11 06:29:00;;;;;;;9.20;1.00;;;;;;;24.52;27.31;101949.50;5020004;28;20550;-78
2022/06/11 06:31:26;;;;;;;8.60;1.67;;;;;;;24.89;26.89;101945.59;5004099;28;20099;-78
2022/06/11 06:33:52;;;;;;;7.20;0.93;;;;;;;25.21;26.72;101956.25;5015724;28;20374;-78
2022/06/11 06:36:17;;;;;;;4.30;1.00;;;;;;;24.80;27.14;101952.56;5024232;28;20578;-80
2022/06/11 06:38:44;;;;;;;6.95;0.88;;;;;;;25.43;27.06;101950.72;5008605;28;20037;-80
2022/06/11 06:41:11;;;;;;;11.80;1.05;;;;;;;26.31;25.50;101951.03;5009664;28;20068;-79
2022/06/11 06:43:38;;;;;;;7.05;1.10;;;;;;;23.20;29.36;101952.00;5015144;28;20053;-77
2022/06/11 06:46:04;;;;;;;5.68;1.45;;;;;;;24.46;27.99;101955.38;5024533;28;20025;-80
2022/06/11 06:48:30;;;;;;;5.25;1.25;;;;;;;23.60;28.92;101954.25;5003151;28;20065;-79
2022/06/11 06:50:56;;;;;;;8.45;1.10;;;;;;;23.86;28.96;101960.22;4998369;28;20500;-79
2022/06/11 06:53:22;;;;;;;10.70;1.52;;;;;;;21.64;32.22;101964.31;5000721;28;20141;-80
2022/06/11 06:55:48;;;;;;;4.75;1.20;;;;;;;24.17;29.39;101961.28;5004824;28;20046;-78
2022/06/11 06:58:17;;;;;;;5.45;0.95;;;;;;;24.84;28.02;101956.69;5001537;28;20123;-79
2022/06/11 07:00:44;;;;;;;8.40;1.42;;;;;;;24.12;28.27;101960.78;5002368;28;20286;-80
2022/06/11 07:03:12;;;;;;;8.82;1.25;;;;;;;24.37;28.52;101972.13;5006653;28;20696;-80
2022/06/11 07:05:39;;;;;;;6.30;1.77;;;;;;;25.16;28.04;101969.16;5003625;28;20188;-79
2022/06/11 07:08:06;;;;;;;6.30;1.63;;;;;;;24.88;28.12;101965.28;5021858;28;20042;-78
2022/06/11 07:10:33;;;;;;;14.00;1.35;;;;;;;25.79;26.78;101967.25;5017473;28;20070;-81
2022/06/11 07:12:59;;;;;;;10.55;1.52;;;;;;;25.96;26.40;101964.91;5001563;28;20049;-79
2022/06/11 07:15:26;;;;;;;14.00;1.65;;;;;;;23.25;30.68;101968.47;5011297;28;20025;-78
2022/06/11 07:17:59;;;;;;;13.05;2.15;;;;;;;21.26;33.22;101981.09;5017546;28;20068;-81
2022/06/11 07:20:28;;;;;;;11.00;1.67;;;;;;;22.10;32.40;101963.75;5024849;28;20033;-83
2022/06/11 07:23:01;;;;;;;11.80;2.28;;;;;;;19.30;37.38;101977.56;5024248;28;20068;-80
2022/06/11 07:25:28;;;;;;;11.15;2.17;;;;;;;18.17;39.93;101986.63;5005698;28;20029;-82
2022/06/11 07:28:08;;;;;;;9.68;2.15;;;;;;;18.63;39.37;101990.25;4979412;28;20466;-76
2022/06/11 07:30:38;;;;;;;4.95;2.58;;;;;;;18.02;40.86;101989.16;5007927;28;20108;-79
2022/06/11 07:33:14;;;;;;;10.63;2.40;;;;;;;18.10;40.15;101982.63;5002479;28;20135;-77
2022/06/11 07:35:40;;;;;;;13.32;2.75;;;;;;;20.73;35.33;101986.38;5017776;28;20065;-80
2022/06/11 07:38:10;;;;;;;13.98;2.28;;;;;;;20.74;34.90;101988.06;5007945;28;20442;-79
2022/06/11 07:40:36;;;;;;;5.97;1.55;;;;;;;21.47;34.33;101992.06;4990272;28;20041;-78
2022/06/11 07:43:06;;;;;;;12.23;2.72;;;;;;;21.53;34.92;101986.34;5002749;28;20561;-80
2022/06/11 07:45:37;;;;;;;11.82;2.22;;;;;;;20.96;35.13;101984.88;5022848;28;20049;-78
2022/06/11 07:48:03;;;;;;;12.27;2.60;;;;;;;19.77;37.42;102001.28;5006919;28;20037;-82
2022/06/11 07:50:35;;;;;;;9.30;1.98;;;;;;;19.69;37.68;102004.44;5023813;28;20030;-79
2022/06/11 07:53:02;;;;;;;7.25;1.92;;;;;;;19.06;37.84;102011.66;5014530;28;20495;-79
2022/06/11 07:55:28;;;;;;;16.08;2.47;;;;;;;18.50;40.12;102005.13;5003201;28;20084;-79
2022/06/11 07:57:55;;;;;;;12.48;1.50;;;;;;;19.24;38.38;102009.72;5017797;28;20455;-78
2022/06/11 08:00:27;;;;;;;9.48;1.98;;;;;;;20.38;36.28;102007.25;5006405;28;20784;-80
2022/06/11 08:02:52;;;;;;;8.68;2.47;;;;;;;21.42;33.59;102007.47;4997353;28;20037;-80
2022/06/11 08:05:19;;;;;;;12.20;1.88;;;;;;;22.92;31.86;102010.09;5004478;28;20121;-76
2022/06/11 08:07:45;;;;;;;8.25;1.60;;;;;;;25.82;27.15;102006.28;4995850;28;20516;-77
2022/06/11 08:10:12;;;;;;;12.77;1.90;;;;;;;25.98;26.80;102006.63;5015199;28;20056;-76
2022/06/11 08:12:38;;;;;;;13.95;1.73;;;;;;;24.80;28.88;102012.22;5021041;28;20050;-80
2022/06/11 08:15:05;;;;;;;12.13;2.13;;;;;;;23.22;30.76;102006.06;5029575;28;20034;-78
2022/06/11 08:17:33;;;;;;;15.85;2.03;;;;;;;21.87;33.00;102021.22;4998523;28;20048;-77
2022/06/11 08:20:00;;;;;;;11.90;2.00;;;;;;;20.47;35.59;102025.25;5003221;28;20119;-77
2022/06/11 08:22:26;;;;;;;10.15;1.50;;;;;;;23.59;31.19;102022.78;4998343;28;20041;-78
2022/06/11 08:24:52;;;;;;;9.68;2.15;;;;;;;27.00;25.86;102017.09;5000600;28;20120;-80
2022/06/11 08:27:18;;;;;;;8.00;1.25;;;;;;;27.18;24.84;102021.75;5015959;28;20124;-79
2022/06/11 08:29:45;;;;;;;12.98;2.00;;;;;;;26.45;25.74;102022.16;4999072;28;20041;-77
2022/06/11 08:32:11;;;;;;;14.38;2.28;;;;;;;25.66;26.32;102034.41;4999475;28;20046;-78
2022/06/11 08:34:41;;;;;;;12.75;1.88;;;;;;;23.43;28.74;102035.59;5004425;28;20088;-77
2022/06/11 08:37:08;;;;;;;11.43;1.40;;;;;;;22.73;30.60;102031.94;4998490;28;20243;-78
2022/06/11 08:39:34;;;;;;;12.30;1.90;;;;;;;23.00;30.35;102034.34;5005372;28;20033;-77
2022/06/11 08:42:01;;;;;;;9.98;1.88;;;;;;;25.53;27.48;102040.94;4998971;28;20036;-75
2022/06/11 08:44:28;;;;;;;7.93;1.77;;;;;;;26.56;25.77;102030.06;5013737;28;20045;-80
2022/06/11 08:46:57;;;;;;;9.55;1.88;;;;;;;22.40;31.48;102051.19;5007644;28;20702;-80
2022/06/11 08:49:43;;;;;;;9.02;1.67;;;;;;;21.59;31.94;102039.13;5020061;28;20041;-79
2022/06/11 08:52:21;;;;;;;13.25;1.55;;;;;;;25.04;27.82;102041.44;4998882;28;20133;-80
2022/06/11 08:54:47;;;;;;;11.35;1.75;;;;;;;25.72;26.25;102033.03;4999397;28;20068;-78
2022/06/11 08:58:04;;;;;;;11.52;1.15;;;;;;;26.75;25.12;102049.88;5008123;28;20076;-77
2022/06/11 09:00:53;;;;;;;17.38;2.15;;;;;;;25.88;25.61;102046.75;4994133;28;20045;-76
2022/06/11 09:03:37;;;;;;;5.18;1.17;;;;;;;25.61;26.17;102051.84;5001317;28;20037;-79
2022/06/11 09:06:33;;;;;;;5.85;1.65;;;;;;;26.53;25.09;102046.41;4998696;28;20056;-77
2022/06/11 09:09:10;;;;;;;12.43;3.20;;;;;;;27.36;25.12;102041.50;4999375;28;20648;-77
2022/06/11 09:11:53;;;;;;;9.88;1.73;;;;;;;25.75;26.16;102053.31;5002860;28;21043;-76
2022/06/11 09:14:18;;;;;;;9.00;1.13;;;;;;;26.78;25.05;102049.56;4992836;28;20072;-77
2022/06/11 09:17:13;;;;;;;11.82;1.67;;;;;;;26.96;24.06;102061.31;4994574;28;20574;-79
2022/06/11 09:20:10;;;;;;;9.40;1.15;;;;;;;26.58;23.44;102060.31;5009991;28;20388;-77
2022/06/11 09:23:01;;;;;;;13.55;1.98;;;;;;;26.32;25.83;102059.94;4999864;28;20056;-77
2022/06/11 09:25:38;;;;;;;17.27;2.05;;;;;;;26.93;25.20;102058.06;4997756;28;20442;-77
2022/06/11 09:28:42;;;;;;;10.93;1.75;;;;;;;26.07;25.58;102051.38;5014153;28;20523;-79
2022/06/11 09:31:15;;;;;;;6.20;1.50;;;;;;;25.75;26.10;102064.88;4992808;28;20037;-77
2022/06/11 09:33:55;;;;;;;8.82;1.67;;;;;;;23.88;28.46;102061.53;4999279;28;20077;-79
2022/06/11 09:36:36;;;;;;;20.90;2.00;;;;;;;24.59;28.20;102067.44;5003410;28;20034;-78
2022/06/11 09:39:14;;;;;;;10.70;1.40;;;;;;;24.89;27.33;102064.09;5027505;28;20375;-79
2022/06/11 09:41:52;;;;;;;17.33;1.95;;;;;;;23.64;28.70;102051.78;5013996;28;20085;-78
2022/06/11 09:44:36;;;;;;;15.13;2.05;;;;;;;24.20;27.67;102057.16;5015120;28;20037;-81
2022/06/11 09:47:10;;;;;;;13.15;1.92;;;;;;;24.63;27.32;102068.91;5002402;28;20750;-79
2022/06/11 09:49:48;;;;;;;17.65;1.50;;;;;;;24.36;28.02;102063.94;5012418;28;20346;-78
2022/06/11 09:52:39;;;;;;;8.68;2.22;;;;;;;23.97;28.88;102066.16;5012186;28;20729;-79
2022/06/11 09:55:50;;;;;;;12.93;1.52;;;;;;;24.54;28.60;102069.66;5000750;28;20045;-79
2022/06/11 09:58:22;;;;;;;9.93;2.07;;;;;;;24.71;28.29;102070.97;5003042;28;20037;-78
2022/06/11 10:00:57;;;;;;;7.13;1.88;;;;;;;25.02;28.00;102074.66;5009280;28;20036;-78
2022/06/11 10:03:40;;;;;;;10.55;1.67;;;;;;;23.57;28.78;102075.44;4999915;28;20069;-80
2022/06/11 10:06:30;;;;;;;14.00;1.90;;;;;;;23.05;29.96;102089.16;5014964;28;20806;-77
2022/06/11 10:08:59;;;;;;;15.48;2.33;;;;;;;22.79;29.50;102076.78;5000158;28;20041;-78
2022/06/11 10:11:41;;;;;;;9.00;1.83;;;;;;;22.75;30.44;102088.63;4995497;28;20037;-79
2022/06/11 10:14:30;;;;;;;11.25;1.58;;;;;;;21.92;29.45;102083.00;5003652;28;20110;-79
2022/06/11 10:17:30;;;;;;;12.52;2.08;;;;;;;22.53;29.69;102086.66;5003696;28;20046;-79
2022/06/11 10:20:17;;;;;;;10.65;1.50;;;;;;;22.38;29.44;102083.28;5023612;28;20124;-79
2022/06/11 10:22:58;;;;;;;11.68;1.88;;;;;;;22.74;29.91;102086.06;5020969;28;20057;-78
2022/06/11 10:25:32;;;;;;;13.10;1.67;;;;;;;24.47;28.36;102087.16;4999572;28;20037;-78
2022/06/11 10:28:20;;;;;;;6.75;1.48;;;;;;;25.69;26.22;102084.16;4998387;28;20736;-79
2022/06/11 10:30:59;;;;;;;15.13;2.03;;;;;;;24.20;27.08;102083.03;4992669;28;20724;-79
2022/06/11 10:33:34;;;;;;;9.65;1.73;;;;;;;25.18;26.78;102090.28;4999365;28;20532;-77
2022/06/11 10:36:11;;;;;;;14.48;2.20;;;;;;;24.59;26.07;102083.47;5005004;28;20665;-78
2022/06/11 10:38:36;;;;;;;8.05;1.70;;;;;;;23.45;26.87;102083.50;5024656;28;20064;-77
2022/06/11 10:41:06;;;;;;;12.55;1.98;;;;;;;22.78;28.48;102082.22;5013598;28;20483;-79
2022/06/11 10:43:51;;;;;;;8.85;1.20;;;;;;;23.93;28.65;102091.41;5019781;28;20038;-78
2022/06/11 10:46:17;;;;;;;11.10;1.33;;;;;;;23.43;27.36;102086.28;5005917;28;20116;-78
2022/06/11 10:48:44;;;;;;;6.47;1.60;;;;;;;23.24;28.51;102097.47;5023567;28;20346;-77
2022/06/11 10:51:24;;;;;;;14.55;2.08;;;;;;;23.69;27.19;102086.97;5007316;28;20433;-78
2022/06/11 10:54:14;;;;;;;8.77;1.25;;;;;;;24.99;26.54;102091.78;4998368;28;20057;-80
2022/06/11 10:56:47;;;;;;;12.45;3.03;;;;;;;23.19;27.90;102096.97;4998142;28;20072;-80
2022/06/11 10:59:21;;;;;;;8.93;1.70;;;;;;;22.66;29.59;102099.09;5007665;28;20504;-76
2022/06/11 11:01:53;;;;;;;9.68;1.45;;;;;;;21.54;30.53;102099.78;5003233;28;20030;-79
2022/06/11 11:04:21;;;;;;;9.32;1.80;;;;;;;20.67;31.67;102098.34;5001478;28;20028;-78
2022/06/11 11:07:04;;;;;;;14.00;2.03;;;;;;;21.29;31.45;102098.72;4996971;28;20121;-79
2022/06/11 11:09:30;;;;;;;11.35;1.42;;;;;;;22.24;31.30;102095.88;5016341;28;20025;-77
2022/06/11 11:12:00;;;;;;;14.23;1.23;;;;;;;22.43;29.42;102095.41;4994622;28;20519;-77
2022/06/11 11:14:39;;;;;;;7.35;1.40;;;;;;;23.51;28.43;102094.56;4987243;28;20029;-77
2022/06/11 11:17:15;;;;;;;8.15;1.20;;;;;;;24.01;28.17;102099.66;4994178;28;20049;-75
2022/06/11 11:19:45;;;;;;;13.75;1.30;;;;;;;25.16;25.72;102098.41;5016307;28;20045;-75
2022/06/11 11:22:19;;;;;;;5.38;1.00;;;;;;;25.48;24.68;102101.03;5015225;28;20057;-78
2022/06/11 11:24:53;;;;;;;9.98;1.15;;;;;;;26.12;23.96;102096.53;5009935;28;20057;-81
2022/06/11 11:27:34;;;;;;;9.85;1.65;;;;;;;24.92;25.37;102095.06;5002317;28;20120;-79
2022/06/11 11:30:15;;;;;;;9.13;0.95;;;;;;;24.14;26.78;102100.38;5001680;28;20537;-78
2022/06/11 11:32:43;;;;;;;5.93;0.97;;;;;;;22.96;27.71;102102.22;5012761;28;20516;-77
2022/06/11 11:35:27;;;;;;;13.57;1.45;;;;;;;21.71;29.80;102102.16;5005331;28;20276;-79
2022/06/11 11:38:00;;;;;;;10.73;1.40;;;;;;;23.30;27.77;102097.06;5001897;28;20049;-79
2022/06/11 11:40:47;;;;;;;8.52;1.30;;;;;;;24.13;27.82;102104.03;4999046;28;20034;-77
2022/06/11 11:43:15;;;;;;;15.90;2.03;;;;;;;24.17;26.50;102104.66;5010948;28;20041;-77
2022/06/11 11:46:00;;;;;;;9.07;1.95;;;;;;;23.83;26.28;102107.25;5013432;28;20080;-74
2022/06/11 11:48:31;;;;;;;10.50;1.67;;;;;;;24.47;26.40;102111.22;5022382;28;20034;-79
2022/06/11 11:51:05;;;;;;;14.23;1.40;;;;;;;23.87;26.84;102107.91;5014009;28;20794;-78
2022/06/11 11:53:47;;;;;;;9.40;1.10;;;;;;;23.74;26.59;102113.28;5006142;28;20045;-76
2022/06/11 11:56:44;;;;;;;7.03;1.00;;;;;;;24.08;25.95;102113.38;5006496;28;20029;-77
2022/06/11 11:59:19;;;;;;;11.25;1.40;;;;;;;22.55;27.06;102122.03;4993340;28;20068;-78